sensor_id;sensor_type;location;lat;lon;timestamp;temperature;humidity
59973;DHT22;55298;-36.624;-64.282;2024-01-15T00:02:06;27.80;25.70
59973;DHT22;55298;-36.624;-64.282;2024-01-15T00:04:40;27.70;25.60
59973;DHT22;55298;-36.624;-64.282;2024-01-15T00:07:08;27.60;25.50
59973;DHT22;55298;-36.624;-64.282;2024-01-15T00:09:36;27.60;25.60
59973;DHT22;55298;-36.624;-64.282;2024-01-15T00:12:04;27.50;26.70
59973;DHT22;55298;-36.624;-64.282;2024-01-15T00:14:31;27.40;29.20
59973;DHT22;55298;-36.624;-64.282;2024-01-15T00:16:59;27.40;27.60
59973;DHT22;55298;-36.624;-64.282;2024-01-15T00:19:27;27.40;27.00
59973;DHT22;55298;-36.624;-64.282;2024-01-15T00:21:55;27.40;27.40
59973;DHT22;55298;-36.624;-64.282;2024-01-15T00:24:24;27.40;28.40
59973;DHT22;55298;-36.624;-64.282;2024-01-15T00:26:52;27.30;29.10
59973;DHT22;55298;-36.624;-64.282;2024-01-15T00:29:20;27.30;29.30
59973;DHT22;55298;-36.624;-64.282;2024-01-15T00:31:48;27.30;28.50
59973;DHT22;55298;-36.624;-64.282;2024-01-15T00:34:16;27.20;29.30
59973;DHT22;55298;-36.624;-64.282;2024-01-15T00:36:43;27.20;29.40
59973;DHT22;55298;-36.624;-64.282;2024-01-15T00:39:11;27.10;28.90
59973;DHT22;55298;-36.624;-64.282;2024-01-15T00:41:39;27.00;29.50
59973;DHT22;55298;-36.624;-64.282;2024-01-15T00:44:06;27.00;29.80
59973;DHT22;55298;-36.624;-64.282;2024-01-15T00:46:43;26.80;29.60
59973;DHT22;55298;-36.624;-64.282;2024-01-15T00:49:12;26.80;29.60
59973;DHT22;55298;-36.624;-64.282;2024-01-15T00:51:40;26.70;29.80
59973;DHT22;55298;-36.624;-64.282;2024-01-15T00:54:08;26.70;29.70
59973;DHT22;55298;-36.624;-64.282;2024-01-15T00:56:36;26.60;29.00
59973;DHT22;55298;-36.624;-64.282;2024-01-15T00:59:04;26.60;29.10
59973;DHT22;55298;-36.624;-64.282;2024-01-15T01:01:32;26.60;29.00
59973;DHT22;55298;-36.624;-64.282;2024-01-15T01:03:59;26.50;29.40
59973;DHT22;55298;-36.624;-64.282;2024-01-15T01:06:27;26.40;29.30
59973;DHT22;55298;-36.624;-64.282;2024-01-15T01:08:55;26.30;29.30
59973;DHT22;55298;-36.624;-64.282;2024-01-15T01:11:22;26.30;29.60
59973;DHT22;55298;-36.624;-64.282;2024-01-15T01:13:50;26.20;30.00
59973;DHT22;55298;-36.624;-64.282;2024-01-15T01:16:17;26.10;30.10
59973;DHT22;55298;-36.624;-64.282;2024-01-15T01:18:45;26.00;31.00
59973;DHT22;55298;-36.624;-64.282;2024-01-15T01:21:13;25.90;31.60
59973;DHT22;55298;-36.624;-64.282;2024-01-15T01:23:40;25.90;30.80
59973;DHT22;55298;-36.624;-64.282;2024-01-15T01:26:08;25.80;31.50
59973;DHT22;55298;-36.624;-64.282;2024-01-15T01:28:36;25.80;31.70
59973;DHT22;55298;-36.624;-64.282;2024-01-15T01:31:03;25.70;31.60
59973;DHT22;55298;-36.624;-64.282;2024-01-15T01:33:31;25.70;31.80
59973;DHT22;55298;-36.624;-64.282;2024-01-15T01:35:59;25.70;32.10
59973;DHT22;55298;-36.624;-64.282;2024-01-15T01:38:26;25.60;31.90
59973;DHT22;55298;-36.624;-64.282;2024-01-15T01:40:54;25.60;31.50
59973;DHT22;55298;-36.624;-64.282;2024-01-15T01:43:22;25.60;32.30
59973;DHT22;55298;-36.624;-64.282;2024-01-15T01:45:49;25.60;31.70
59973;DHT22;55298;-36.624;-64.282;2024-01-15T01:48:17;25.50;32.00
59973;DHT22;55298;-36.624;-64.282;2024-01-15T01:50:45;25.50;31.70
59973;DHT22;55298;-36.624;-64.282;2024-01-15T01:53:13;25.40;31.90
59973;DHT22;55298;-36.624;-64.282;2024-01-15T01:55:41;25.40;32.60
59973;DHT22;55298;-36.624;-64.282;2024-01-15T01:58:08;25.40;31.70
59973;DHT22;55298;-36.624;-64.282;2024-01-15T02:00:36;25.30;32.10
59973;DHT22;55298;-36.624;-64.282;2024-01-15T02:03:05;25.30;31.10
59973;DHT22;55298;-36.624;-64.282;2024-01-15T02:05:33;25.20;31.40
59973;DHT22;55298;-36.624;-64.282;2024-01-15T02:08:02;25.10;32.80
59973;DHT22;55298;-36.624;-64.282;2024-01-15T02:10:30;25.10;32.00
59973;DHT22;55298;-36.624;-64.282;2024-01-15T02:12:58;25.10;32.80
59973;DHT22;55298;-36.624;-64.282;2024-01-15T02:15:25;25.00;33.10
59973;DHT22;55298;-36.624;-64.282;2024-01-15T02:18:01;24.90;32.30
59973;DHT22;55298;-36.624;-64.282;2024-01-15T02:20:30;24.90;32.30
59973;DHT22;55298;-36.624;-64.282;2024-01-15T02:23:12;24.90;33.10
59973;DHT22;55298;-36.624;-64.282;2024-01-15T02:25:44;24.80;32.80
59973;DHT22;55298;-36.624;-64.282;2024-01-15T02:28:14;24.70;33.80
59973;DHT22;55298;-36.624;-64.282;2024-01-15T02:30:43;24.70;33.40
59973;DHT22;55298;-36.624;-64.282;2024-01-15T02:33:11;24.60;33.40
59973;DHT22;55298;-36.624;-64.282;2024-01-15T02:35:39;24.60;32.20
59973;DHT22;55298;-36.624;-64.282;2024-01-15T02:38:07;24.60;33.10
59973;DHT22;55298;-36.624;-64.282;2024-01-15T02:40:36;24.50;33.60
59973;DHT22;55298;-36.624;-64.282;2024-01-15T02:43:04;24.50;34.20
59973;DHT22;55298;-36.624;-64.282;2024-01-15T02:45:32;24.50;34.10
59973;DHT22;55298;-36.624;-64.282;2024-01-15T02:47:59;24.40;33.90
59973;DHT22;55298;-36.624;-64.282;2024-01-15T02:50:27;24.40;34.30
59973;DHT22;55298;-36.624;-64.282;2024-01-15T02:52:55;24.40;34.00
59973;DHT22;55298;-36.624;-64.282;2024-01-15T02:55:22;24.30;34.80
59973;DHT22;55298;-36.624;-64.282;2024-01-15T02:57:50;24.30;34.40
59973;DHT22;55298;-36.624;-64.282;2024-01-15T03:00:18;24.20;34.30
59973;DHT22;55298;-36.624;-64.282;2024-01-15T03:02:45;24.20;34.60
59973;DHT22;55298;-36.624;-64.282;2024-01-15T03:05:13;24.10;34.10
59973;DHT22;55298;-36.624;-64.282;2024-01-15T03:07:41;24.10;34.70
59973;DHT22;55298;-36.624;-64.282;2024-01-15T03:10:09;24.00;35.50
59973;DHT22;55298;-36.624;-64.282;2024-01-15T03:12:36;24.00;36.00
59973;DHT22;55298;-36.624;-64.282;2024-01-15T03:15:04;23.90;36.00
59973;DHT22;55298;-36.624;-64.282;2024-01-15T03:17:32;23.80;37.30
59973;DHT22;55298;-36.624;-64.282;2024-01-15T03:20:00;23.80;37.00
59973;DHT22;55298;-36.624;-64.282;2024-01-15T03:22:27;23.70;36.60
59973;DHT22;55298;-36.624;-64.282;2024-01-15T03:24:55;23.70;36.20
59973;DHT22;55298;-36.624;-64.282;2024-01-15T03:27:23;23.60;37.40
59973;DHT22;55298;-36.624;-64.282;2024-01-15T03:29:51;23.60;37.80
59973;DHT22;55298;-36.624;-64.282;2024-01-15T03:32:18;23.60;37.40
59973;DHT22;55298;-36.624;-64.282;2024-01-15T03:34:46;23.50;38.10
59973;DHT22;55298;-36.624;-64.282;2024-01-15T03:37:15;23.40;38.80
59973;DHT22;55298;-36.624;-64.282;2024-01-15T03:39:42;23.40;38.60
59973;DHT22;55298;-36.624;-64.282;2024-01-15T03:42:10;23.30;38.90
59973;DHT22;55298;-36.624;-64.282;2024-01-15T03:44:38;23.30;38.80
59973;DHT22;55298;-36.624;-64.282;2024-01-15T03:47:05;23.30;38.90
59973;DHT22;55298;-36.624;-64.282;2024-01-15T03:49:33;23.20;38.40
59973;DHT22;55298;-36.624;-64.282;2024-01-15T03:52:01;23.10;38.60
59973;DHT22;55298;-36.624;-64.282;2024-01-15T03:54:28;23.10;38.50
59973;DHT22;55298;-36.624;-64.282;2024-01-15T03:56:56;23.10;38.60
59973;DHT22;55298;-36.624;-64.282;2024-01-15T03:59:23;23.00;37.80
59973;DHT22;55298;-36.624;-64.282;2024-01-15T04:01:51;23.00;39.60
59973;DHT22;55298;-36.624;-64.282;2024-01-15T04:04:19;22.90;38.60
59973;DHT22;55298;-36.624;-64.282;2024-01-15T04:06:47;22.90;40.10
59973;DHT22;55298;-36.624;-64.282;2024-01-15T04:09:14;22.90;39.70
59973;DHT22;55298;-36.624;-64.282;2024-01-15T04:11:42;22.90;41.00
59973;DHT22;55298;-36.624;-64.282;2024-01-15T04:14:10;22.90;40.60
59973;DHT22;55298;-36.624;-64.282;2024-01-15T04:16:38;22.80;40.70
59973;DHT22;55298;-36.624;-64.282;2024-01-15T04:19:06;22.70;41.80
59973;DHT22;55298;-36.624;-64.282;2024-01-15T04:21:33;22.70;41.20
59973;DHT22;55298;-36.624;-64.282;2024-01-15T04:24:01;22.60;41.80
59973;DHT22;55298;-36.624;-64.282;2024-01-15T04:26:28;22.50;42.90
59973;DHT22;55298;-36.624;-64.282;2024-01-15T04:28:56;22.50;42.80
59973;DHT22;55298;-36.624;-64.282;2024-01-15T04:31:26;22.40;42.00
59973;DHT22;55298;-36.624;-64.282;2024-01-15T04:33:53;22.40;42.00
59973;DHT22;55298;-36.624;-64.282;2024-01-15T04:36:21;22.40;41.60
59973;DHT22;55298;-36.624;-64.282;2024-01-15T04:38:49;22.50;41.50
59973;DHT22;55298;-36.624;-64.282;2024-01-15T04:41:17;22.50;41.20
59973;DHT22;55298;-36.624;-64.282;2024-01-15T04:43:45;22.40;41.80
59973;DHT22;55298;-36.624;-64.282;2024-01-15T04:46:13;22.40;40.80
59973;DHT22;55298;-36.624;-64.282;2024-01-15T04:48:41;22.40;41.10
59973;DHT22;55298;-36.624;-64.282;2024-01-15T04:51:09;22.40;41.60
59973;DHT22;55298;-36.624;-64.282;2024-01-15T04:53:37;22.40;42.20
59973;DHT22;55298;-36.624;-64.282;2024-01-15T04:56:05;22.40;42.10
59973;DHT22;55298;-36.624;-64.282;2024-01-15T04:58:33;22.30;42.50
59973;DHT22;55298;-36.624;-64.282;2024-01-15T05:01:00;22.20;42.50
59973;DHT22;55298;-36.624;-64.282;2024-01-15T05:03:28;22.20;42.60
59973;DHT22;55298;-36.624;-64.282;2024-01-15T05:05:56;22.10;43.00
59973;DHT22;55298;-36.624;-64.282;2024-01-15T05:08:24;22.00;42.90
59973;DHT22;55298;-36.624;-64.282;2024-01-15T05:10:51;21.90;44.10
59973;DHT22;55298;-36.624;-64.282;2024-01-15T05:13:19;21.70;44.50
59973;DHT22;55298;-36.624;-64.282;2024-01-15T05:15:46;21.60;44.80
59973;DHT22;55298;-36.624;-64.282;2024-01-15T05:18:14;21.60;43.80
59973;DHT22;55298;-36.624;-64.282;2024-01-15T05:20:42;21.50;44.60
59973;DHT22;55298;-36.624;-64.282;2024-01-15T05:23:09;21.40;44.30
59973;DHT22;55298;-36.624;-64.282;2024-01-15T05:25:37;21.40;45.00
59973;DHT22;55298;-36.624;-64.282;2024-01-15T05:28:06;21.30;45.30
59973;DHT22;55298;-36.624;-64.282;2024-01-15T05:30:33;21.30;46.00
59973;DHT22;55298;-36.624;-64.282;2024-01-15T05:33:01;21.20;45.80
59973;DHT22;55298;-36.624;-64.282;2024-01-15T05:35:29;21.10;45.00
59973;DHT22;55298;-36.624;-64.282;2024-01-15T05:37:57;21.10;44.50
59973;DHT22;55298;-36.624;-64.282;2024-01-15T05:40:24;21.10;46.00
59973;DHT22;55298;-36.624;-64.282;2024-01-15T05:42:52;21.00;45.40
59973;DHT22;55298;-36.624;-64.282;2024-01-15T05:45:20;21.00;45.00
59973;DHT22;55298;-36.624;-64.282;2024-01-15T05:47:47;21.00;45.00
59973;DHT22;55298;-36.624;-64.282;2024-01-15T05:50:16;21.00;45.10
59973;DHT22;55298;-36.624;-64.282;2024-01-15T05:52:43;21.00;44.40
59973;DHT22;55298;-36.624;-64.282;2024-01-15T05:55:11;21.00;44.10
59973;DHT22;55298;-36.624;-64.282;2024-01-15T05:57:39;21.00;44.00
59973;DHT22;55298;-36.624;-64.282;2024-01-15T06:00:07;21.00;43.80
59973;DHT22;55298;-36.624;-64.282;2024-01-15T06:02:37;21.00;44.10
59973;DHT22;55298;-36.624;-64.282;2024-01-15T06:05:05;21.00;44.00
59973;DHT22;55298;-36.624;-64.282;2024-01-15T06:07:34;20.90;43.60
59973;DHT22;55298;-36.624;-64.282;2024-01-15T06:10:03;21.00;44.10
59973;DHT22;55298;-36.624;-64.282;2024-01-15T06:12:31;20.90;44.00
59973;DHT22;55298;-36.624;-64.282;2024-01-15T06:15:00;20.90;43.50
59973;DHT22;55298;-36.624;-64.282;2024-01-15T06:17:27;20.90;43.60
59973;DHT22;55298;-36.624;-64.282;2024-01-15T06:19:55;20.80;43.70
59973;DHT22;55298;-36.624;-64.282;2024-01-15T06:22:23;20.80;43.70
59973;DHT22;55298;-36.624;-64.282;2024-01-15T06:24:51;20.80;44.10
59973;DHT22;55298;-36.624;-64.282;2024-01-15T06:27:22;20.80;44.10
59973;DHT22;55298;-36.624;-64.282;2024-01-15T06:29:50;20.70;44.30
59973;DHT22;55298;-36.624;-64.282;2024-01-15T06:32:17;20.70;44.60
59973;DHT22;55298;-36.624;-64.282;2024-01-15T06:34:45;20.60;45.00
59973;DHT22;55298;-36.624;-64.282;2024-01-15T06:37:13;20.50;44.60
59973;DHT22;55298;-36.624;-64.282;2024-01-15T06:39:40;20.50;44.90
59973;DHT22;55298;-36.624;-64.282;2024-01-15T06:42:08;20.40;44.70
59973;DHT22;55298;-36.624;-64.282;2024-01-15T06:44:36;20.40;44.90
59973;DHT22;55298;-36.624;-64.282;2024-01-15T06:47:03;20.40;45.10
59973;DHT22;55298;-36.624;-64.282;2024-01-15T06:49:31;20.30;45.20
59973;DHT22;55298;-36.624;-64.282;2024-01-15T06:51:59;20.20;45.20
59973;DHT22;55298;-36.624;-64.282;2024-01-15T06:54:27;20.20;45.30
59973;DHT22;55298;-36.624;-64.282;2024-01-15T06:56:55;20.20;44.50
59973;DHT22;55298;-36.624;-64.282;2024-01-15T06:59:22;20.20;45.70
59973;DHT22;55298;-36.624;-64.282;2024-01-15T07:01:50;20.10;45.20
59973;DHT22;55298;-36.624;-64.282;2024-01-15T07:04:18;20.10;45.00
59973;DHT22;55298;-36.624;-64.282;2024-01-15T07:06:45;20.10;45.10
59973;DHT22;55298;-36.624;-64.282;2024-01-15T07:09:14;20.10;45.30
59973;DHT22;55298;-36.624;-64.282;2024-01-15T07:11:46;20.10;45.10
59973;DHT22;55298;-36.624;-64.282;2024-01-15T07:14:13;20.00;45.70
59973;DHT22;55298;-36.624;-64.282;2024-01-15T07:16:41;20.00;45.00
59973;DHT22;55298;-36.624;-64.282;2024-01-15T07:19:08;20.00;45.00
59973;DHT22;55298;-36.624;-64.282;2024-01-15T07:21:36;20.00;45.20
59973;DHT22;55298;-36.624;-64.282;2024-01-15T07:24:06;19.90;45.50
59973;DHT22;55298;-36.624;-64.282;2024-01-15T07:26:34;19.90;45.10
59973;DHT22;55298;-36.624;-64.282;2024-01-15T07:29:01;19.90;45.40
59973;DHT22;55298;-36.624;-64.282;2024-01-15T07:31:30;19.80;45.10
59973;DHT22;55298;-36.624;-64.282;2024-01-15T07:33:57;19.80;45.30
59973;DHT22;55298;-36.624;-64.282;2024-01-15T07:36:26;19.80;45.60
59973;DHT22;55298;-36.624;-64.282;2024-01-15T07:38:54;19.70;46.20
59973;DHT22;55298;-36.624;-64.282;2024-01-15T07:41:22;19.70;45.70
59973;DHT22;55298;-36.624;-64.282;2024-01-15T07:43:50;19.70;45.80
59973;DHT22;55298;-36.624;-64.282;2024-01-15T07:46:17;19.60;46.20
59973;DHT22;55298;-36.624;-64.282;2024-01-15T07:48:45;19.50;46.00
59973;DHT22;55298;-36.624;-64.282;2024-01-15T07:51:13;19.40;46.10
59973;DHT22;55298;-36.624;-64.282;2024-01-15T07:53:40;19.30;46.50
59973;DHT22;55298;-36.624;-64.282;2024-01-15T07:56:08;19.20;46.40
59973;DHT22;55298;-36.624;-64.282;2024-01-15T07:58:36;19.20;46.30
59973;DHT22;55298;-36.624;-64.282;2024-01-15T08:01:04;19.20;45.90
59973;DHT22;55298;-36.624;-64.282;2024-01-15T08:03:32;19.10;46.30
59973;DHT22;55298;-36.624;-64.282;2024-01-15T08:06:00;19.00;46.40
59973;DHT22;55298;-36.624;-64.282;2024-01-15T08:08:27;19.00;46.50
59973;DHT22;55298;-36.624;-64.282;2024-01-15T08:10:55;19.00;46.20
59973;DHT22;55298;-36.624;-64.282;2024-01-15T08:13:23;19.00;46.50
59973;DHT22;55298;-36.624;-64.282;2024-01-15T08:15:54;18.90;46.70
59973;DHT22;55298;-36.624;-64.282;2024-01-15T08:18:22;18.90;47.30
59973;DHT22;55298;-36.624;-64.282;2024-01-15T08:20:49;18.70;47.60
59973;DHT22;55298;-36.624;-64.282;2024-01-15T08:23:18;18.70;47.40
59973;DHT22;55298;-36.624;-64.282;2024-01-15T08:25:46;18.70;47.70
59973;DHT22;55298;-36.624;-64.282;2024-01-15T08:28:14;18.70;47.70
59973;DHT22;55298;-36.624;-64.282;2024-01-15T08:30:41;18.60;47.30
59973;DHT22;55298;-36.624;-64.282;2024-01-15T08:33:09;18.70;46.80
59973;DHT22;55298;-36.624;-64.282;2024-01-15T08:35:37;18.60;47.20
59973;DHT22;55298;-36.624;-64.282;2024-01-15T08:38:04;18.60;46.80
59973;DHT22;55298;-36.624;-64.282;2024-01-15T08:40:32;18.70;46.00
59973;DHT22;55298;-36.624;-64.282;2024-01-15T08:43:00;18.70;46.00
59973;DHT22;55298;-36.624;-64.282;2024-01-15T08:45:28;18.70;46.10
59973;DHT22;55298;-36.624;-64.282;2024-01-15T08:47:56;18.70;46.00
59973;DHT22;55298;-36.624;-64.282;2024-01-15T08:50:24;18.80;45.70
59973;DHT22;55298;-36.624;-64.282;2024-01-15T08:52:51;18.80;45.60
59973;DHT22;55298;-36.624;-64.282;2024-01-15T08:55:19;18.80;45.40
59973;DHT22;55298;-36.624;-64.282;2024-01-15T08:57:49;18.70;45.60
59973;DHT22;55298;-36.624;-64.282;2024-01-15T09:00:18;18.80;45.00
59973;DHT22;55298;-36.624;-64.282;2024-01-15T09:02:45;18.80;45.20
59973;DHT22;55298;-36.624;-64.282;2024-01-15T09:05:13;18.90;44.90
59973;DHT22;55298;-36.624;-64.282;2024-01-15T09:07:41;18.90;44.80
59973;DHT22;55298;-36.624;-64.282;2024-01-15T09:10:09;18.90;45.10
59973;DHT22;55298;-36.624;-64.282;2024-01-15T09:12:36;18.90;44.90
59973;DHT22;55298;-36.624;-64.282;2024-01-15T09:15:06;18.90;44.90
59973;DHT22;55298;-36.624;-64.282;2024-01-15T09:17:35;18.90;44.70
59973;DHT22;55298;-36.624;-64.282;2024-01-15T09:20:03;18.90;44.40
59973;DHT22;55298;-36.624;-64.282;2024-01-15T09:22:32;18.80;44.40
59973;DHT22;55298;-36.624;-64.282;2024-01-15T09:25:00;19.00;44.50
59973;DHT22;55298;-36.624;-64.282;2024-01-15T09:27:27;19.00;44.10
59973;DHT22;55298;-36.624;-64.282;2024-01-15T09:29:55;19.00;44.20
59973;DHT22;55298;-36.624;-64.282;2024-01-15T09:32:23;19.00;44.30
59973;DHT22;55298;-36.624;-64.282;2024-01-15T09:34:51;19.00;44.50
59973;DHT22;55298;-36.624;-64.282;2024-01-15T09:37:18;19.10;44.10
59973;DHT22;55298;-36.624;-64.282;2024-01-15T09:39:46;19.10;44.20
59973;DHT22;55298;-36.624;-64.282;2024-01-15T09:42:15;19.10;44.00
59973;DHT22;55298;-36.624;-64.282;2024-01-15T09:44:43;19.10;44.20
59973;DHT22;55298;-36.624;-64.282;2024-01-15T09:47:13;19.30;44.20
59973;DHT22;55298;-36.624;-64.282;2024-01-15T09:49:42;19.30;43.60
59973;DHT22;55298;-36.624;-64.282;2024-01-15T09:52:11;19.40;43.70
59973;DHT22;55298;-36.624;-64.282;2024-01-15T09:54:39;19.40;44.00
59973;DHT22;55298;-36.624;-64.282;2024-01-15T09:57:08;19.40;44.10
59973;DHT22;55298;-36.624;-64.282;2024-01-15T09:59:37;19.40;44.20
59973;DHT22;55298;-36.624;-64.282;2024-01-15T10:02:14;19.50;44.30
59973;DHT22;55298;-36.624;-64.282;2024-01-15T10:04:45;19.50;44.40
59973;DHT22;55298;-36.624;-64.282;2024-01-15T10:07:16;19.60;44.00
59973;DHT22;55298;-36.624;-64.282;2024-01-15T10:09:46;19.70;43.80
59973;DHT22;55298;-36.624;-64.282;2024-01-15T10:12:15;19.80;44.10
59973;DHT22;55298;-36.624;-64.282;2024-01-15T10:14:42;19.90;43.80
59973;DHT22;55298;-36.624;-64.282;2024-01-15T10:17:14;20.00;43.50
59973;DHT22;55298;-36.624;-64.282;2024-01-15T10:19:43;20.10;43.60
59973;DHT22;55298;-36.624;-64.282;2024-01-15T10:22:13;20.20;44.00
59973;DHT22;55298;-36.624;-64.282;2024-01-15T10:24:41;20.20;44.30
59973;DHT22;55298;-36.624;-64.282;2024-01-15T10:27:10;20.40;44.60
59973;DHT22;55298;-36.624;-64.282;2024-01-15T10:29:37;20.50;44.90
59973;DHT22;55298;-36.624;-64.282;2024-01-15T10:32:09;21.10;43.90
59973;DHT22;55298;-36.624;-64.282;2024-01-15T10:34:41;21.60;42.60
59973;DHT22;55298;-36.624;-64.282;2024-01-15T10:37:09;21.60;41.80
59973;DHT22;55298;-36.624;-64.282;2024-01-15T10:39:37;21.40;42.20
59973;DHT22;55298;-36.624;-64.282;2024-01-15T10:42:06;21.30;42.50
59973;DHT22;55298;-36.624;-64.282;2024-01-15T10:44:34;21.30;42.60
59973;DHT22;55298;-36.624;-64.282;2024-01-15T10:47:02;21.30;43.60
59973;DHT22;55298;-36.624;-64.282;2024-01-15T10:49:30;21.30;42.50
59973;DHT22;55298;-36.624;-64.282;2024-01-15T10:51:58;21.50;42.00
59973;DHT22;55298;-36.624;-64.282;2024-01-15T10:54:27;22.10;41.50
59973;DHT22;55298;-36.624;-64.282;2024-01-15T10:56:56;22.50;40.40
59973;DHT22;55298;-36.624;-64.282;2024-01-15T10:59:24;22.60;40.00
59973;DHT22;55298;-36.624;-64.282;2024-01-15T11:01:53;22.60;40.20
59973;DHT22;55298;-36.624;-64.282;2024-01-15T11:04:22;22.60;40.00
59973;DHT22;55298;-36.624;-64.282;2024-01-15T11:06:57;22.70;40.10
59973;DHT22;55298;-36.624;-64.282;2024-01-15T11:09:25;22.80;40.20
59973;DHT22;55298;-36.624;-64.282;2024-01-15T11:12:19;23.00;40.30
59973;DHT22;55298;-36.624;-64.282;2024-01-15T11:14:50;23.10;40.00
59973;DHT22;55298;-36.624;-64.282;2024-01-15T11:17:20;23.40;40.40
59973;DHT22;55298;-36.624;-64.282;2024-01-15T11:19:49;23.90;40.10
59973;DHT22;55298;-36.624;-64.282;2024-01-15T11:25:14;27.10;34.70
59973;DHT22;55298;-36.624;-64.282;2024-01-15T11:27:44;28.60;33.20
59973;DHT22;55298;-36.624;-64.282;2024-01-15T11:30:19;29.50;31.90
59973;DHT22;55298;-36.624;-64.282;2024-01-15T11:32:48;30.40;30.60
59973;DHT22;55298;-36.624;-64.282;2024-01-15T11:35:16;31.50;29.70
59973;DHT22;55298;-36.624;-64.282;2024-01-15T11:37:59;32.60;28.40
59973;DHT22;55298;-36.624;-64.282;2024-01-15T11:40:39;33.50;27.50
59973;DHT22;55298;-36.624;-64.282;2024-01-15T11:43:09;34.30;26.90
59973;DHT22;55298;-36.624;-64.282;2024-01-15T11:45:37;34.90;26.40
59973;DHT22;55298;-36.624;-64.282;2024-01-15T11:48:15;35.50;26.00
59973;DHT22;55298;-36.624;-64.282;2024-01-15T11:50:48;36.20;25.80
59973;DHT22;55298;-36.624;-64.282;2024-01-15T11:53:27;36.70;23.70
59973;DHT22;55298;-36.624;-64.282;2024-01-15T11:55:58;37.20;24.50
59973;DHT22;55298;-36.624;-64.282;2024-01-15T11:58:30;37.50;23.20
59973;DHT22;55298;-36.624;-64.282;2024-01-15T12:00:58;37.70;22.00
59973;DHT22;55298;-36.624;-64.282;2024-01-15T12:03:26;37.60;22.30
59973;DHT22;55298;-36.624;-64.282;2024-01-15T12:05:54;37.60;21.40
59973;DHT22;55298;-36.624;-64.282;2024-01-15T12:08:22;37.30;20.90
59973;DHT22;55298;-36.624;-64.282;2024-01-15T12:10:51;37.20;21.70
59973;DHT22;55298;-36.624;-64.282;2024-01-15T12:13:19;37.40;21.30
59973;DHT22;55298;-36.624;-64.282;2024-01-15T12:15:48;37.60;23.00
59973;DHT22;55298;-36.624;-64.282;2024-01-15T12:18:18;37.80;20.70
59973;DHT22;55298;-36.624;-64.282;2024-01-15T12:20:46;37.40;21.10
59973;DHT22;55298;-36.624;-64.282;2024-01-15T12:23:15;37.60;22.40
59973;DHT22;55298;-36.624;-64.282;2024-01-15T12:25:46;37.70;21.00
59973;DHT22;55298;-36.624;-64.282;2024-01-15T12:28:15;37.70;21.10
59973;DHT22;55298;-36.624;-64.282;2024-01-15T12:30:45;37.60;21.30
59973;DHT22;55298;-36.624;-64.282;2024-01-15T12:33:11;37.80;22.20
59973;DHT22;55298;-36.624;-64.282;2024-01-15T12:35:39;37.70;21.10
59973;DHT22;55298;-36.624;-64.282;2024-01-15T12:38:07;37.70;22.30
59973;DHT22;55298;-36.624;-64.282;2024-01-15T12:40:35;37.30;21.50
59973;DHT22;55298;-36.624;-64.282;2024-01-15T12:43:03;37.20;22.10
59973;DHT22;55298;-36.624;-64.282;2024-01-15T12:45:31;37.00;21.60
59973;DHT22;55298;-36.624;-64.282;2024-01-15T12:47:59;37.50;22.20
59973;DHT22;55298;-36.624;-64.282;2024-01-15T12:50:27;38.00;20.70
59973;DHT22;55298;-36.624;-64.282;2024-01-15T12:52:55;38.10;19.80
59973;DHT22;55298;-36.624;-64.282;2024-01-15T12:55:23;38.10;19.90
59973;DHT22;55298;-36.624;-64.282;2024-01-15T12:57:50;38.30;19.30
59973;DHT22;55298;-36.624;-64.282;2024-01-15T13:00:21;38.20;19.50
59973;DHT22;55298;-36.624;-64.282;2024-01-15T13:02:49;38.20;19.90
59973;DHT22;55298;-36.624;-64.282;2024-01-15T13:05:17;38.50;20.20
59973;DHT22;55298;-36.624;-64.282;2024-01-15T13:07:46;38.90;20.00
59973;DHT22;55298;-36.624;-64.282;2024-01-15T13:10:14;39.30;19.40
59973;DHT22;55298;-36.624;-64.282;2024-01-15T13:12:42;39.30;19.10
59973;DHT22;55298;-36.624;-64.282;2024-01-15T13:15:10;39.20;18.80
59973;DHT22;55298;-36.624;-64.282;2024-01-15T13:17:39;38.60;19.00
59973;DHT22;55298;-36.624;-64.282;2024-01-15T13:20:08;38.50;19.60
59973;DHT22;55298;-36.624;-64.282;2024-01-15T13:22:38;38.20;20.60
59973;DHT22;55298;-36.624;-64.282;2024-01-15T13:25:07;38.80;20.80
59973;DHT22;55298;-36.624;-64.282;2024-01-15T13:27:35;39.50;20.40
59973;DHT22;55298;-36.624;-64.282;2024-01-15T13:30:03;40.20;20.00
59973;DHT22;55298;-36.624;-64.282;2024-01-15T13:32:31;40.60;19.60
59973;DHT22;55298;-36.624;-64.282;2024-01-15T13:35:00;41.00;18.80
59973;DHT22;55298;-36.624;-64.282;2024-01-15T13:37:29;41.30;18.50
59973;DHT22;55298;-36.624;-64.282;2024-01-15T13:39:57;41.60;19.00
59973;DHT22;55298;-36.624;-64.282;2024-01-15T13:42:25;42.00;19.60
59973;DHT22;55298;-36.624;-64.282;2024-01-15T13:44:54;42.30;18.90
59973;DHT22;55298;-36.624;-64.282;2024-01-15T13:47:21;42.80;20.00
59973;DHT22;55298;-36.624;-64.282;2024-01-15T13:49:49;43.10;18.60
59973;DHT22;55298;-36.624;-64.282;2024-01-15T13:52:17;43.30;18.40
59973;DHT22;55298;-36.624;-64.282;2024-01-15T13:54:44;43.40;17.40
59973;DHT22;55298;-36.624;-64.282;2024-01-15T13:57:12;43.50;18.40
59973;DHT22;55298;-36.624;-64.282;2024-01-15T13:59:40;43.70;18.20
59973;DHT22;55298;-36.624;-64.282;2024-01-15T14:02:08;43.70;16.40
59973;DHT22;55298;-36.624;-64.282;2024-01-15T14:04:37;43.50;17.50
59973;DHT22;55298;-36.624;-64.282;2024-01-15T14:07:04;43.60;17.60
59973;DHT22;55298;-36.624;-64.282;2024-01-15T14:09:33;43.70;16.80
59973;DHT22;55298;-36.624;-64.282;2024-01-15T14:12:01;43.70;18.30
59973;DHT22;55298;-36.624;-64.282;2024-01-15T14:14:29;43.90;16.90
59973;DHT22;55298;-36.624;-64.282;2024-01-15T14:16:57;43.80;16.50
59973;DHT22;55298;-36.624;-64.282;2024-01-15T14:19:28;43.60;17.20
59973;DHT22;55298;-36.624;-64.282;2024-01-15T14:21:56;43.30;16.00
59973;DHT22;55298;-36.624;-64.282;2024-01-15T14:24:23;43.30;17.50
59973;DHT22;55298;-36.624;-64.282;2024-01-15T14:26:51;43.30;17.40
59973;DHT22;55298;-36.624;-64.282;2024-01-15T14:29:19;43.10;17.00
59973;DHT22;55298;-36.624;-64.282;2024-01-15T14:31:53;43.30;17.40
59973;DHT22;55298;-36.624;-64.282;2024-01-15T14:34:24;43.60;17.40
59973;DHT22;55298;-36.624;-64.282;2024-01-15T14:36:56;43.80;16.90
59973;DHT22;55298;-36.624;-64.282;2024-01-15T14:39:25;43.60;16.90
59973;DHT22;55298;-36.624;-64.282;2024-01-15T14:41:53;43.70;16.70
59973;DHT22;55298;-36.624;-64.282;2024-01-15T14:44:20;43.90;15.90
59973;DHT22;55298;-36.624;-64.282;2024-01-15T14:46:48;43.80;15.90
59973;DHT22;55298;-36.624;-64.282;2024-01-15T14:49:16;43.50;15.70
59973;DHT22;55298;-36.624;-64.282;2024-01-15T14:51:45;43.20;15.40
59973;DHT22;55298;-36.624;-64.282;2024-01-15T14:54:13;43.20;15.80
59973;DHT22;55298;-36.624;-64.282;2024-01-15T14:56:41;43.10;16.80
59973;DHT22;55298;-36.624;-64.282;2024-01-15T14:59:10;42.90;16.10